createdAt,value
2023-02-10T00:01:27.382Z,14.75
2023-02-10T00:03:55.473Z,15.60
2023-02-10T00:06:27.121Z,14.32
2023-02-10T00:08:57.827Z,15.27
2023-02-10T00:11:44.785Z,14.85
2023-02-10T00:14:14.022Z,14.35
2023-02-10T00:16:41.335Z,15.02
2023-02-10T00:19:08.839Z,15.63
2023-02-10T00:21:36.236Z,14.50
2023-02-10T00:24:04.195Z,15.05
2023-02-10T00:26:31.580Z,15.75
2023-02-10T00:28:58.935Z,15.07
2023-02-10T00:31:26.494Z,15.07
2023-02-10T00:33:53.929Z,14.30
2023-02-10T00:36:22.751Z,14.52
2023-02-10T00:38:53.062Z,14.32
2023-02-10T00:41:23.080Z,14.35
2023-02-10T00:43:51.295Z,14.00
2023-02-10T00:46:20.508Z,13.82
2023-02-10T00:48:49.264Z,13.52
2023-02-10T00:51:18.351Z,12.95
2023-02-10T00:53:45.833Z,13.82
2023-02-10T00:56:13.189Z,13.73
2023-02-10T00:58:40.558Z,13.05
2023-02-10T01:01:09.991Z,13.40
2023-02-10T01:03:38.814Z,13.75
2023-02-10T01:06:06.800Z,14.02
2023-02-10T01:08:35.566Z,14.05
2023-02-10T01:11:05.944Z,13.55
2023-02-10T01:13:34.698Z,13.15
2023-02-10T01:16:05.452Z,13.52
2023-02-10T01:18:35.228Z,13.10
2023-02-10T01:21:15.979Z,14.40
2023-02-10T01:23:44.365Z,12.88
2023-02-10T01:26:12.232Z,13.10
2023-02-10T01:28:41.116Z,13.05
2023-02-10T01:31:10.737Z,13.40
2023-02-10T01:33:38.585Z,12.95
2023-02-10T01:36:10.983Z,13.18
2023-02-10T01:38:38.757Z,14.57
2023-02-10T01:41:07.183Z,13.63
2023-02-10T01:43:56.040Z,14.48
2023-02-10T01:46:24.160Z,12.93
2023-02-10T01:48:58.075Z,14.00
2023-02-10T01:51:58.218Z,15.00
2023-02-10T01:54:31.391Z,14.73
2023-02-10T01:57:00.555Z,14.52
2023-02-10T01:59:32.841Z,16.08
2023-02-10T02:02:07.753Z,15.20
2023-02-10T02:04:45.794Z,14.93
2023-02-10T02:07:13.305Z,14.40
2023-02-10T02:09:41.120Z,14.27
2023-02-10T02:12:40.844Z,15.27
2023-02-10T02:15:21.361Z,14.95
2023-02-10T02:18:22.132Z,15.43
2023-02-10T02:21:14.340Z,14.77
2023-02-10T02:24:34.300Z,16.13
2023-02-10T02:27:26.572Z,15.07
2023-02-10T02:30:02.968Z,13.88
2023-02-10T02:32:39.930Z,14.05
2023-02-10T02:35:15.733Z,13.55
2023-02-10T02:37:48.654Z,15.23
2023-02-10T02:40:17.658Z,14.90
2023-02-10T02:42:45.339Z,14.98
2023-02-10T02:45:27.258Z,14.88
2023-02-10T02:48:16.353Z,14.45
2023-02-10T02:50:52.621Z,13.85
2023-02-10T02:53:29.191Z,14.07
2023-02-10T02:56:09.341Z,14.68
2023-02-10T02:58:54.583Z,15.18
2023-02-10T03:01:35.524Z,14.38
2023-02-10T03:04:04.044Z,14.63
2023-02-10T03:06:34.370Z,14.25
2023-02-10T03:09:02.013Z,13.30
2023-02-10T03:11:29.310Z,14.57
2023-02-10T03:13:56.652Z,14.50
2023-02-10T03:16:23.997Z,14.32
2023-02-10T03:18:53.688Z,14.75
2023-02-10T03:21:20.977Z,14.68
2023-02-10T03:23:48.369Z,15.23
2023-02-10T03:26:15.797Z,15.13
2023-02-10T03:28:43.134Z,17.10
2023-02-10T03:31:10.591Z,16.77
2023-02-10T03:33:38.093Z,15.63
2023-02-10T03:36:05.773Z,16.60
2023-02-10T03:38:34.237Z,16.42
2023-02-10T03:41:01.602Z,15.70
2023-02-10T03:43:29.065Z,16.38
2023-02-10T03:45:56.439Z,16.95
2023-02-10T03:48:27.521Z,17.30
2023-02-10T03:50:55.326Z,16.83
2023-02-10T03:53:22.664Z,16.85
2023-02-10T03:55:50.126Z,17.08
2023-02-10T03:58:17.736Z,16.58
2023-02-10T04:00:45.005Z,16.15
2023-02-10T04:03:12.448Z,19.30
2023-02-10T04:05:39.806Z,19.63
2023-02-10T04:08:09.159Z,21.88
2023-02-10T04:10:36.606Z,20.15
2023-02-10T04:13:04.407Z,20.35
2023-02-10T04:15:31.732Z,22.38
2023-02-10T04:17:59.101Z,21.80
2023-02-10T04:20:26.865Z,23.27
2023-02-10T04:22:54.185Z,23.30
2023-02-10T04:25:21.476Z,22.38
2023-02-10T04:27:50.090Z,21.42
2023-02-10T04:30:17.646Z,19.55
2023-02-10T04:32:45.007Z,20.70
2023-02-10T04:35:12.431Z,20.67
2023-02-10T04:37:39.813Z,20.25
2023-02-10T04:40:07.382Z,19.70
2023-02-10T04:42:34.746Z,21.10
2023-02-10T04:45:02.118Z,20.48
2023-02-10T04:47:29.666Z,17.80
2023-02-10T04:49:57.067Z,17.48
2023-02-10T04:52:24.431Z,16.52
2023-02-10T04:54:51.914Z,17.60
2023-02-10T04:57:19.254Z,16.40
2023-02-10T04:59:46.586Z,16.35
2023-02-10T05:02:14.070Z,17.60
2023-02-10T05:04:43.284Z,17.70
2023-02-10T05:07:12.562Z,17.58
2023-02-10T05:09:39.909Z,17.45
2023-02-10T05:12:07.333Z,18.05
2023-02-10T05:14:34.636Z,17.40
2023-02-10T05:17:01.946Z,17.70
2023-02-10T05:19:29.273Z,17.55
2023-02-10T05:21:59.563Z,16.98
2023-02-10T05:24:27.066Z,17.10
2023-02-10T05:26:54.462Z,16.98
2023-02-10T05:29:21.837Z,17.63
2023-02-10T05:31:49.392Z,16.75
2023-02-10T05:34:16.724Z,17.13
2023-02-10T05:36:45.182Z,17.60
2023-02-10T05:39:25.048Z,17.60
2023-02-10T05:41:56.842Z,16.08
2023-02-10T05:44:25.927Z,16.75
2023-02-10T05:46:53.251Z,16.75
2023-02-10T05:49:21.168Z,16.10
2023-02-10T05:51:50.596Z,17.55
2023-02-10T05:54:19.260Z,16.67
2023-02-10T05:56:47.328Z,16.10
2023-02-10T05:59:15.689Z,15.43
2023-02-10T06:01:43.754Z,17.02
2023-02-10T06:04:11.476Z,16.70
2023-02-10T06:06:39.008Z,16.23
2023-02-10T06:09:09.118Z,15.45
2023-02-10T06:11:36.718Z,15.45
2023-02-10T06:14:04.149Z,16.08
2023-02-10T06:16:31.569Z,11.98
2023-02-10T06:18:58.975Z,13.82
2023-02-10T06:21:26.855Z,13.52
2023-02-10T06:23:54.293Z,13.52
2023-02-10T06:26:21.734Z,12.80
2023-02-10T06:28:49.488Z,13.10
2023-02-10T06:31:17.054Z,13.25
2023-02-10T06:33:44.478Z,14.48
2023-02-10T06:36:12.253Z,14.52
2023-02-10T06:38:39.604Z,14.40
2023-02-10T06:41:07.375Z,14.90
2023-02-10T06:43:34.845Z,14.02
2023-02-10T06:46:05.612Z,13.43
2023-02-10T06:48:33.026Z,12.65
2023-02-10T06:51:01.198Z,13.10
2023-02-10T06:53:28.507Z,14.32
2023-02-10T06:55:59.412Z,15.27
2023-02-10T06:58:26.784Z,12.70
2023-02-10T07:00:54.230Z,15.15
2023-02-10T07:03:21.655Z,14.35
2023-02-10T07:05:49.310Z,14.93
2023-02-10T07:08:16.879Z,15.85
2023-02-10T07:10:46.912Z,16.27
2023-02-10T07:13:14.416Z,17.02
2023-02-10T07:15:43.045Z,17.98
2023-02-10T07:18:10.505Z,17.67
2023-02-10T07:20:37.834Z,17.80
2023-02-10T07:23:05.151Z,19.10
2023-02-10T07:25:32.789Z,18.67
2023-02-10T07:28:00.428Z,19.55
2023-02-10T07:30:27.889Z,20.88
2023-02-10T07:32:55.192Z,18.55
2023-02-10T07:35:23.587Z,18.65
2023-02-10T07:37:50.918Z,19.33
2023-02-10T07:40:18.362Z,20.02
2023-02-10T07:42:46.103Z,20.48
2023-02-10T07:45:27.415Z,20.38
2023-02-10T07:47:54.725Z,19.90
2023-02-10T07:50:22.238Z,18.08
2023-02-10T07:52:49.715Z,19.63
2023-02-10T07:55:17.627Z,18.52
2023-02-10T07:57:45.113Z,18.30
2023-02-10T08:00:16.084Z,18.05
2023-02-10T08:02:43.476Z,19.58
2023-02-10T08:05:10.954Z,18.52
2023-02-10T08:07:38.592Z,18.20
2023-02-10T08:10:06.363Z,18.05
2023-02-10T08:12:33.915Z,18.23
2023-02-10T08:15:01.261Z,17.65
2023-02-10T08:17:29.388Z,18.15
2023-02-10T08:19:56.901Z,18.23
2023-02-10T08:22:24.351Z,18.50
2023-02-10T08:24:51.904Z,17.10
2023-02-10T08:27:19.268Z,17.10
2023-02-10T08:29:46.574Z,17.02
2023-02-10T08:32:19.723Z,17.08
2023-02-10T08:34:48.388Z,18.13
2023-02-10T08:37:17.432Z,17.85
2023-02-10T08:39:45.550Z,17.25
2023-02-10T08:42:12.922Z,17.38
2023-02-10T08:44:40.376Z,17.05
2023-02-10T08:47:09.770Z,17.05
2023-02-10T08:49:37.215Z,16.20
2023-02-10T08:52:04.906Z,16.88
2023-02-10T08:54:32.498Z,16.80
2023-02-10T08:56:59.999Z,17.85
2023-02-10T08:59:27.727Z,16.40
2023-02-10T09:01:55.353Z,14.85
2023-02-10T09:04:23.057Z,16.15
2023-02-10T09:06:50.919Z,15.73
2023-02-10T09:09:23.418Z,13.25
2023-02-10T09:11:51.859Z,13.23
2023-02-10T09:14:19.206Z,12.52
2023-02-10T09:16:47.867Z,13.15
2023-02-10T09:19:15.438Z,12.45
2023-02-10T09:21:47.519Z,12.18
2023-02-10T09:24:19.261Z,12.65
2023-02-10T09:26:46.813Z,13.13
2023-02-10T09:29:14.445Z,12.85
2023-02-10T09:31:42.000Z,13.10
2023-02-10T09:34:10.025Z,13.27
2023-02-10T09:36:37.770Z,13.63
2023-02-10T09:39:05.369Z,15.02
2023-02-10T09:41:35.489Z,14.05
2023-02-10T09:44:07.387Z,14.70
2023-02-10T09:47:04.147Z,13.00
2023-02-10T09:49:50.005Z,13.27
2023-02-10T09:52:54.782Z,13.18
2023-02-10T09:55:30.982Z,13.52
2023-02-10T09:58:04.988Z,12.15
2023-02-10T10:00:36.322Z,12.32
2023-02-10T10:03:08.009Z,12.27
2023-02-10T10:05:45.948Z,13.00
2023-02-10T10:08:39.497Z,12.43
2023-02-10T10:11:20.596Z,14.77
2023-02-10T10:13:47.986Z,14.93
2023-02-10T10:16:44.895Z,14.45
2023-02-10T10:19:51.576Z,12.50
2023-02-10T10:22:33.998Z,11.75
2023-02-10T10:25:34.187Z,11.23
2023-02-10T10:28:16.681Z,11.15
2023-02-10T10:31:12.323Z,11.40
2023-02-10T10:33:52.150Z,11.95
2023-02-10T10:36:22.468Z,12.68
2023-02-10T10:39:01.009Z,12.88
2023-02-10T10:41:33.324Z,12.48
2023-02-10T10:44:00.780Z,13.57
2023-02-10T10:46:44.580Z,12.65
2023-02-10T10:49:12.414Z,12.27
2023-02-10T10:51:41.772Z,13.18
2023-02-10T10:54:16.438Z,13.10
2023-02-10T10:56:59.325Z,12.65
2023-02-10T10:59:33.638Z,13.10
2023-02-10T11:02:13.233Z,12.95
2023-02-10T11:04:43.380Z,12.48
2023-02-10T11:07:15.068Z,13.13
2023-02-10T11:09:49.671Z,13.38
2023-02-10T11:12:23.013Z,13.10
2023-02-10T11:14:54.725Z,13.73
2023-02-10T11:17:39.834Z,13.68
2023-02-10T11:20:12.992Z,13.13
2023-02-10T11:22:44.357Z,13.10
2023-02-10T11:25:36.013Z,13.20
2023-02-10T11:28:07.391Z,12.95
2023-02-10T11:30:37.145Z,13.15
2023-02-10T11:33:07.246Z,13.60
2023-02-10T11:35:35.745Z,13.30
2023-02-10T11:38:17.465Z,13.70
2023-02-10T11:40:53.059Z,13.30
2023-02-10T11:43:28.452Z,13.60
2023-02-10T11:46:09.475Z,12.90
2023-02-10T11:48:37.920Z,13.20
2023-02-10T11:51:14.335Z,13.18
2023-02-10T11:53:46.055Z,12.75
2023-02-10T11:56:25.684Z,12.98
2023-02-10T11:59:08.953Z,13.80
2023-02-10T12:01:57.757Z,13.45
2023-02-10T12:04:28.028Z,14.07
2023-02-10T12:07:25.977Z,13.20
2023-02-10T12:09:58.984Z,13.45
2023-02-10T12:13:03.901Z,12.90
2023-02-10T12:15:50.109Z,12.63
2023-02-10T12:18:34.695Z,12.82
2023-02-10T12:21:10.872Z,13.23
2023-02-10T12:24:02.007Z,13.90
2023-02-10T12:26:39.342Z,13.38
2023-02-10T12:29:33.640Z,12.70
2023-02-10T12:32:21.210Z,14.32
2023-02-10T12:35:07.848Z,14.07
2023-02-10T12:37:53.218Z,12.95
2023-02-10T12:40:25.947Z,12.82
2023-02-10T12:45:46.383Z,12.23
2023-02-10T12:48:23.222Z,15.45
2023-02-10T12:51:41.582Z,15.07
2023-02-10T12:54:42.326Z,13.00
2023-02-10T12:57:20.506Z,13.43
2023-02-10T12:59:59.470Z,13.50
2023-02-10T13:02:36.961Z,15.20
2023-02-10T13:05:12.126Z,15.02
2023-02-10T13:07:54.346Z,15.63
2023-02-10T13:10:38.954Z,16.77
2023-02-10T13:13:29.674Z,16.45
2023-02-10T13:16:21.402Z,15.98
2023-02-10T13:18:59.993Z,19.20
2023-02-10T13:21:41.086Z,19.52
2023-02-10T13:24:44.331Z,19.08
2023-02-10T13:27:29.780Z,18.88
2023-02-10T13:30:02.652Z,19.38
2023-02-10T13:32:45.329Z,18.25
2023-02-10T13:35:17.325Z,19.05
2023-02-10T13:40:23.528Z,21.53
2023-02-10T13:43:00.780Z,19.20
2023-02-10T13:45:30.795Z,19.85
2023-02-10T13:48:01.626Z,19.88
2023-02-10T13:50:32.023Z,18.58
2023-02-10T13:53:07.194Z,17.98
2023-02-10T13:55:44.911Z,18.33
2023-02-10T13:58:12.201Z,15.63
2023-02-10T14:01:25.978Z,15.25
2023-02-10T14:03:57.389Z,15.50
2023-02-10T14:09:29.079Z,13.13
2023-02-10T14:11:59.171Z,14.95
2023-02-10T14:14:32.482Z,15.32
2023-02-10T14:17:24.993Z,14.35
2023-02-10T14:19:52.999Z,14.38
2023-02-10T14:22:39.522Z,14.40
2023-02-10T14:25:10.171Z,12.40
2023-02-10T14:27:37.790Z,12.05
2023-02-10T14:30:21.273Z,12.07
2023-02-10T14:32:50.064Z,13.15
2023-02-10T14:35:29.626Z,12.63
2023-02-10T14:37:59.877Z,11.27
2023-02-10T14:40:29.952Z,11.25
2023-02-10T14:43:00.825Z,11.40
2023-02-10T14:45:29.577Z,11.18
2023-02-10T14:48:00.397Z,11.88
2023-02-10T14:50:32.544Z,12.07
2023-02-10T14:53:02.020Z,11.32
2023-02-10T14:55:35.374Z,11.38
2023-02-10T14:58:12.361Z,11.07
2023-02-10T15:00:42.168Z,12.02
2023-02-10T15:03:13.845Z,11.52
2023-02-10T15:05:49.748Z,10.98
2023-02-10T15:08:21.976Z,11.45
2023-02-10T15:10:55.902Z,11.40
2023-02-10T15:13:31.846Z,10.73
2023-02-10T15:15:59.868Z,11.05
2023-02-10T15:18:32.372Z,10.88
2023-02-10T15:21:02.772Z,9.73
2023-02-10T15:23:33.033Z,10.85
2023-02-10T15:26:15.541Z,10.90
2023-02-10T15:28:42.930Z,10.70
2023-02-10T15:31:29.066Z,11.43
2023-02-10T15:33:59.238Z,10.88
2023-02-10T15:36:44.993Z,11.65
2023-02-10T15:39:38.879Z,12.25
2023-02-10T15:42:08.069Z,11.50
2023-02-10T15:44:43.595Z,11.27
2023-02-10T15:47:17.083Z,11.25
2023-02-10T15:49:46.200Z,11.52
2023-02-10T15:52:18.928Z,10.50
2023-02-10T15:54:46.924Z,11.30
2023-02-10T15:57:14.350Z,11.27
2023-02-10T15:59:41.714Z,11.73
2023-02-10T16:02:13.966Z,12.13
2023-02-10T16:04:43.050Z,12.35
2023-02-10T16:07:20.331Z,12.50
2023-02-10T16:09:49.909Z,13.02
2023-02-10T16:12:18.217Z,12.75
2023-02-10T16:14:45.608Z,12.25
2023-02-10T16:17:20.776Z,12.32
2023-02-10T16:19:49.504Z,12.80
2023-02-10T16:22:17.277Z,11.10
2023-02-10T16:24:44.832Z,12.32
2023-02-10T16:27:12.891Z,12.25
2023-02-10T16:29:40.384Z,12.20
2023-02-10T16:32:07.794Z,11.00
2023-02-10T16:34:35.177Z,11.35
2023-02-10T16:37:02.721Z,11.88
2023-02-10T16:39:30.968Z,11.63
2023-02-10T16:41:58.298Z,11.32
2023-02-10T16:44:25.703Z,11.60
2023-02-10T16:46:53.176Z,11.77
2023-02-10T16:49:20.688Z,10.32
2023-02-10T16:51:48.255Z,11.50
2023-02-10T16:54:15.677Z,11.82
2023-02-10T16:56:43.948Z,12.50
2023-02-10T16:59:15.830Z,11.82
2023-02-10T17:01:46.524Z,12.13
2023-02-10T17:04:14.177Z,12.30
2023-02-10T17:06:47.627Z,12.27
2023-02-10T17:09:25.547Z,12.98
2023-02-10T17:11:52.974Z,12.57
2023-02-10T17:14:20.365Z,12.68
2023-02-10T17:16:50.459Z,13.30
2023-02-10T17:19:25.063Z,32.33
2023-02-10T17:21:52.402Z,14.18
2023-02-10T17:24:19.692Z,13.10
2023-02-10T17:26:49.538Z,13.52
2023-02-10T17:29:18.315Z,13.68
2023-02-10T17:31:46.081Z,13.45
2023-02-10T17:34:15.150Z,13.27
2023-02-10T17:36:43.713Z,14.52
2023-02-10T17:39:25.383Z,13.13
2023-02-10T17:41:57.098Z,14.40
2023-02-10T17:44:25.221Z,14.40
2023-02-10T17:46:55.916Z,15.40
2023-02-10T17:49:25.739Z,14.73
2023-02-10T17:51:53.037Z,15.55
2023-02-10T17:54:20.636Z,15.65
2023-02-10T17:56:48.211Z,16.42
2023-02-10T17:59:16.776Z,14.90
2023-02-10T18:01:46.097Z,15.48
2023-02-10T18:04:16.146Z,15.68
2023-02-10T18:06:43.957Z,15.65
2023-02-10T18:09:11.867Z,15.85
2023-02-10T18:11:40.392Z,15.80
2023-02-10T18:14:08.654Z,17.15
2023-02-10T18:16:36.739Z,16.60
2023-02-10T18:19:04.240Z,16.83
2023-02-10T18:21:31.512Z,18.23
2023-02-10T18:23:58.952Z,18.35
2023-02-10T18:26:26.450Z,17.85
2023-02-10T18:28:53.909Z,19.38
2023-02-10T18:31:21.403Z,18.60
2023-02-10T18:33:48.862Z,18.90
2023-02-10T18:36:18.270Z,17.15
2023-02-10T18:38:45.914Z,16.33
2023-02-10T18:41:13.656Z,14.32
2023-02-10T18:43:41.134Z,14.95
2023-02-10T18:46:08.639Z,15.15
2023-02-10T18:48:39.272Z,15.52
2023-02-10T18:51:08.213Z,15.65
2023-02-10T18:53:40.423Z,15.40
2023-02-10T18:56:10.827Z,16.05
2023-02-10T18:58:40.121Z,17.60
2023-02-10T19:01:14.421Z,19.42
2023-02-10T19:03:41.712Z,17.08
2023-02-10T19:06:09.758Z,17.58
2023-02-10T19:08:40.263Z,17.73
2023-02-10T19:11:11.250Z,20.00
2023-02-10T19:13:41.069Z,19.57
2023-02-10T19:16:08.993Z,20.63
2023-02-10T19:18:37.157Z,20.33
2023-02-10T19:21:11.216Z,21.55
2023-02-10T19:23:41.115Z,21.27
2023-02-10T19:26:11.107Z,21.33
2023-02-10T19:28:42.677Z,21.65
2023-02-10T19:31:12.479Z,21.70
2023-02-10T19:33:42.090Z,23.15
2023-02-10T19:36:11.555Z,22.50
2023-02-10T19:38:38.889Z,22.70
2023-02-10T19:41:11.175Z,22.35
2023-02-10T19:43:38.831Z,23.35
2023-02-10T19:46:06.725Z,22.25
2023-02-10T19:48:35.493Z,23.13
2023-02-10T19:51:15.591Z,23.38
2023-02-10T19:53:43.847Z,22.52
2023-02-10T19:56:11.763Z,23.27
2023-02-10T19:58:40.002Z,23.63
2023-02-10T20:01:15.748Z,24.77
2023-02-10T20:03:50.814Z,26.58
2023-02-10T20:06:22.747Z,27.38
2023-02-10T20:11:20.271Z,28.00
2023-02-10T20:13:47.913Z,29.70
2023-02-10T20:16:16.041Z,31.70
2023-02-10T20:18:43.451Z,32.13
2023-02-10T20:21:11.088Z,31.40
2023-02-10T20:23:42.747Z,33.58
2023-02-10T20:26:13.219Z,33.95
2023-02-10T20:28:41.119Z,34.33
2023-02-10T20:31:14.543Z,35.53
2023-02-10T20:33:44.225Z,33.88
2023-02-10T20:36:14.988Z,32.28
2023-02-10T20:38:44.340Z,31.25
2023-02-10T20:41:13.436Z,28.95
2023-02-10T20:43:41.814Z,27.73
2023-02-10T20:46:10.097Z,26.13
2023-02-10T20:48:37.977Z,27.75
2023-02-10T20:51:08.859Z,26.35
2023-02-10T20:53:38.558Z,27.92
2023-02-10T20:56:06.567Z,23.83
2023-02-10T20:58:34.293Z,22.05
2023-02-10T21:01:06.904Z,22.33
2023-02-10T21:03:35.383Z,22.83
2023-02-10T21:06:05.698Z,24.10
2023-02-10T21:08:33.638Z,24.70
2023-02-10T21:11:01.485Z,27.02
2023-02-10T21:13:29.074Z,27.00
2023-02-10T21:15:56.414Z,26.85
2023-02-10T21:18:23.952Z,28.08
2023-02-10T21:20:58.866Z,28.38
2023-02-10T21:23:27.295Z,29.20
2023-02-10T21:25:54.853Z,30.75
2023-02-10T21:28:22.795Z,31.15
2023-02-10T21:30:50.296Z,29.48
2023-02-10T21:33:19.334Z,29.67
2023-02-10T21:35:51.981Z,27.80
2023-02-10T21:38:20.130Z,26.45
2023-02-10T21:40:47.517Z,24.10
2023-02-10T21:43:16.276Z,17.52
2023-02-10T21:45:50.898Z,15.80
2023-02-10T21:48:18.453Z,15.98
2023-02-10T21:50:46.530Z,17.25
2023-02-10T21:53:14.011Z,18.17
2023-02-10T21:55:41.356Z,21.35
2023-02-10T21:58:08.742Z,18.95
2023-02-10T22:00:36.048Z,19.48
2023-02-10T22:03:03.611Z,17.50
2023-02-10T22:05:31.297Z,16.52
2023-02-10T22:07:58.689Z,15.32
2023-02-10T22:10:25.996Z,15.60
2023-02-10T22:12:53.397Z,13.93
2023-02-10T22:15:20.720Z,13.93
2023-02-10T22:17:48.081Z,13.20
2023-02-10T22:20:15.464Z,12.88
2023-02-10T22:22:45.260Z,12.73
2023-02-10T22:25:12.570Z,12.30
2023-02-10T22:27:39.952Z,11.75
2023-02-10T22:30:07.889Z,11.00
2023-02-10T22:32:35.309Z,11.70
2023-02-10T22:35:02.836Z,12.65
2023-02-10T22:37:30.173Z,12.00
2023-02-10T22:39:57.442Z,12.40
2023-02-10T22:42:25.390Z,11.57
2023-02-10T22:44:52.671Z,12.60
2023-02-10T22:47:20.066Z,12.60
2023-02-10T22:49:51.122Z,11.23
2023-02-10T22:52:20.213Z,11.82
2023-02-10T22:54:50.992Z,11.93
2023-02-10T22:57:18.418Z,11.93
2023-02-10T22:59:45.726Z,11.57
2023-02-10T23:02:13.142Z,10.90
2023-02-10T23:04:41.818Z,12.43
2023-02-10T23:07:09.936Z,11.82
2023-02-10T23:09:37.196Z,12.07
2023-02-10T23:12:04.680Z,11.80
2023-02-10T23:14:32.053Z,11.52
2023-02-10T23:16:59.401Z,11.45
2023-02-10T23:19:31.142Z,11.57
2023-02-10T23:21:59.182Z,12.27
2023-02-10T23:24:26.580Z,11.75
2023-02-10T23:26:53.967Z,11.68
2023-02-10T23:29:21.253Z,12.18
2023-02-10T23:31:49.362Z,11.27
2023-02-10T23:34:18.286Z,11.35
2023-02-10T23:36:46.142Z,12.05
2023-02-10T23:39:14.060Z,11.57
2023-02-10T23:41:41.513Z,12.15
2023-02-10T23:44:08.818Z,10.95
2023-02-10T23:46:36.346Z,11.95
2023-02-10T23:49:05.585Z,11.55
2023-02-10T23:51:32.961Z,11.60
2023-02-10T23:54:00.428Z,11.85
2023-02-10T23:56:27.916Z,11.90
2023-02-10T23:58:55.691Z,11.70
